sensor_id;sensor_type;location;lat;lon;timestamp;pressure;altitude;pressure_sealevel;temperature;humidity
18858;BME280;9558;50.178;8.370;2023-02-13T00:02:24;100292.56;;;6.69;100.00
18858;BME280;9558;50.178;8.370;2023-02-13T00:04:50;100292.56;;;6.69;100.00
18858;BME280;9558;50.178;8.370;2023-02-13T00:07:16;100291.00;;;6.67;100.00
18858;BME280;9558;50.178;8.370;2023-02-13T00:09:43;100288.53;;;6.65;100.00
18858;BME280;9558;50.178;8.370;2023-02-13T00:12:09;100281.72;;;6.64;100.00
18858;BME280;9558;50.178;8.370;2023-02-13T00:14:37;100282.56;;;6.65;100.00
18858;BME280;9558;50.178;8.370;2023-02-13T00:17:05;100282.56;;;6.65;100.00
18858;BME280;9558;50.178;8.370;2023-02-13T00:19:32;100280.09;;;6.63;100.00
18858;BME280;9558;50.178;8.370;2023-02-13T00:21:59;100283.56;;;6.62;100.00
18858;BME280;9558;50.178;8.370;2023-02-13T00:24:25;100281.72;;;6.64;100.00
18858;BME280;9558;50.178;8.370;2023-02-13T00:26:52;100280.19;;;6.62;100.00
18858;BME280;9558;50.178;8.370;2023-02-13T00:29:18;100277.63;;;6.62;100.00
18858;BME280;9558;50.178;8.370;2023-02-13T00:31:45;100278.63;;;6.59;100.00
18858;BME280;9558;50.178;8.370;2023-02-13T00:34:12;100266.69;;;6.58;100.00
18858;BME280;9558;50.178;8.370;2023-02-13T00:36:39;100274.50;;;6.56;100.00
18858;BME280;9558;50.178;8.370;2023-02-13T00:39:05;100270.16;;;6.57;100.00
18858;BME280;9558;50.178;8.370;2023-02-13T00:41:32;100276.16;;;6.57;100.00
18858;BME280;9558;50.178;8.370;2023-02-13T00:43:58;100269.25;;;6.58;100.00
18858;BME280;9558;50.178;8.370;2023-02-13T00:46:25;100274.50;;;6.56;100.00
18858;BME280;9558;50.178;8.370;2023-02-13T00:48:51;100265.31;;;6.52;100.00
18858;BME280;9558;50.178;8.370;2023-02-13T00:51:19;100267.06;;;6.52;100.00
18858;BME280;9558;50.178;8.370;2023-02-13T00:53:45;100262.31;;;6.46;100.00
18858;BME280;9558;50.178;8.370;2023-02-13T00:56:12;100265.25;;;6.39;100.00
18858;BME280;9558;50.178;8.370;2023-02-13T00:58:38;100264.81;;;6.33;100.00
18858;BME280;9558;50.178;8.370;2023-02-13T01:01:05;100261.44;;;6.32;100.00
18858;BME280;9558;50.178;8.370;2023-02-13T01:03:31;100264.59;;;6.23;100.00
18858;BME280;9558;50.178;8.370;2023-02-13T01:05:58;100256.81;;;6.10;100.00
18858;BME280;9558;50.178;8.370;2023-02-13T01:08:25;100259.94;;;6.01;100.00
18858;BME280;9558;50.178;8.370;2023-02-13T01:10:53;100268.19;;;5.92;100.00
18858;BME280;9558;50.178;8.370;2023-02-13T01:13:20;100268.53;;;5.85;100.00
18858;BME280;9558;50.178;8.370;2023-02-13T01:15:47;100261.03;;;5.68;100.00
18858;BME280;9558;50.178;8.370;2023-02-13T01:18:14;100265.06;;;5.58;100.00
18858;BME280;9558;50.178;8.370;2023-02-13T01:20:41;100269.91;;;5.48;100.00
18858;BME280;9558;50.178;8.370;2023-02-13T01:23:09;100273.94;;;5.38;100.00
18858;BME280;9558;50.178;8.370;2023-02-13T01:25:39;100273.66;;;5.28;100.00
18858;BME280;9558;50.178;8.370;2023-02-13T01:28:06;100267.41;;;5.17;100.00
18858;BME280;9558;50.178;8.370;2023-02-13T01:30:33;100264.72;;;5.05;100.00
18858;BME280;9558;50.178;8.370;2023-02-13T01:33:00;100260.75;;;4.99;100.00
18858;BME280;9558;50.178;8.370;2023-02-13T01:35:26;100262.16;;;4.89;100.00
18858;BME280;9558;50.178;8.370;2023-02-13T01:37:53;100258.97;;;4.85;100.00
18858;BME280;9558;50.178;8.370;2023-02-13T01:40:19;100262.88;;;4.76;100.00
18858;BME280;9558;50.178;8.370;2023-02-13T01:42:47;100260.56;;;4.72;100.00
18858;BME280;9558;50.178;8.370;2023-02-13T01:45:23;100255.66;;;4.67;100.00
18858;BME280;9558;50.178;8.370;2023-02-13T01:47:53;100260.25;;;4.62;100.00
18858;BME280;9558;50.178;8.370;2023-02-13T01:50:24;100259.56;;;4.58;100.00
18858;BME280;9558;50.178;8.370;2023-02-13T01:52:56;100259.94;;;4.52;100.00
18858;BME280;9558;50.178;8.370;2023-02-13T01:55:26;100246.53;;;4.47;100.00
18858;BME280;9558;50.178;8.370;2023-02-13T01:57:57;100244.88;;;4.46;100.00
18858;BME280;9558;50.178;8.370;2023-02-13T02:00:27;100244.56;;;4.36;100.00
18858;BME280;9558;50.178;8.370;2023-02-13T02:02:57;100241.31;;;4.32;100.00
18858;BME280;9558;50.178;8.370;2023-02-13T02:05:26;100231.41;;;4.26;100.00
18858;BME280;9558;50.178;8.370;2023-02-13T02:07:55;100232.31;;;4.25;100.00
18858;BME280;9558;50.178;8.370;2023-02-13T02:10:22;100235.63;;;4.27;100.00
18858;BME280;9558;50.178;8.370;2023-02-13T02:12:52;100234.53;;;4.31;100.00
18858;BME280;9558;50.178;8.370;2023-02-13T02:15:25;100239.66;;;4.31;100.00
18858;BME280;9558;50.178;8.370;2023-02-13T02:17:51;100231.16;;;4.31;100.00
18858;BME280;9558;50.178;8.370;2023-02-13T02:20:27;100234.06;;;4.25;100.00
18858;BME280;9558;50.178;8.370;2023-02-13T02:23:21;100231.66;;;4.22;100.00
18858;BME280;9558;50.178;8.370;2023-02-13T02:29:10;100227.88;;;4.13;100.00
18858;BME280;9558;50.178;8.370;2023-02-13T02:32:13;100228.00;;;4.10;100.00
18858;BME280;9558;50.178;8.370;2023-02-13T02:34:48;100233.41;;;4.05;100.00
18858;BME280;9558;50.178;8.370;2023-02-13T02:37:31;100225.88;;;4.02;100.00
18858;BME280;9558;50.178;8.370;2023-02-13T02:40:10;100234.53;;;4.00;100.00
18858;BME280;9558;50.178;8.370;2023-02-13T02:42:51;100229.50;;;3.98;100.00
18858;BME280;9558;50.178;8.370;2023-02-13T02:45:27;100225.38;;;3.95;100.00
18858;BME280;9558;50.178;8.370;2023-02-13T02:48:04;100230.66;;;3.92;100.00
18858;BME280;9558;50.178;8.370;2023-02-13T02:50:52;100226.69;;;3.87;100.00
18858;BME280;9558;50.178;8.370;2023-02-13T02:53:29;100231.28;;;3.80;100.00
18858;BME280;9558;50.178;8.370;2023-02-13T02:56:00;100228.16;;;3.75;100.00
18858;BME280;9558;50.178;8.370;2023-02-13T02:58:32;100229.97;;;3.73;100.00
18858;BME280;9558;50.178;8.370;2023-02-13T03:01:23;100224.84;;;3.73;100.00
18858;BME280;9558;50.178;8.370;2023-02-13T03:04:15;100222.53;;;3.68;100.00
18858;BME280;9558;50.178;8.370;2023-02-13T03:07:03;100230.22;;;3.68;100.00
18858;BME280;9558;50.178;8.370;2023-02-13T03:09:37;100232.84;;;3.67;100.00
18858;BME280;9558;50.178;8.370;2023-02-13T03:12:25;100222.84;;;3.62;100.00
18858;BME280;9558;50.178;8.370;2023-02-13T03:15:12;100231.53;;;3.59;100.00
18858;BME280;9558;50.178;8.370;2023-02-13T03:17:39;100231.59;;;3.58;100.00
18858;BME280;9558;50.178;8.370;2023-02-13T03:20:31;100221.69;;;3.52;100.00
18858;BME280;9558;50.178;8.370;2023-02-13T03:23:22;100232.91;;;3.49;100.00
18858;BME280;9558;50.178;8.370;2023-02-13T03:28:51;100233.19;;;3.43;100.00
18858;BME280;9558;50.178;8.370;2023-02-13T03:31:40;100236.69;;;3.42;100.00
18858;BME280;9558;50.178;8.370;2023-02-13T03:34:12;100236.84;;;3.39;100.00
18858;BME280;9558;50.178;8.370;2023-02-13T03:36:46;100242.09;;;3.36;100.00
18858;BME280;9558;50.178;8.370;2023-02-13T03:39:39;100240.47;;;3.35;100.00
18858;BME280;9558;50.178;8.370;2023-02-13T03:42:12;100239.78;;;3.31;100.00
18858;BME280;9558;50.178;8.370;2023-02-13T03:44:47;100252.56;;;3.31;100.00
18858;BME280;9558;50.178;8.370;2023-02-13T03:47:36;100248.41;;;3.28;100.00
18858;BME280;9558;50.178;8.370;2023-02-13T03:50:05;100247.69;;;3.26;100.00
18858;BME280;9558;50.178;8.370;2023-02-13T03:52:38;100234.19;;;3.23;100.00
18858;BME280;9558;50.178;8.370;2023-02-13T03:55:09;100247.00;;;3.23;100.00
18858;BME280;9558;50.178;8.370;2023-02-13T03:57:58;100252.28;;;3.20;100.00
18858;BME280;9558;50.178;8.370;2023-02-13T04:00:48;100247.31;;;3.17;100.00
18858;BME280;9558;50.178;8.370;2023-02-13T04:03:21;100244.69;;;3.18;100.00
18858;BME280;9558;50.178;8.370;2023-02-13T04:05:52;100248.13;;;3.17;100.00
18858;BME280;9558;50.178;8.370;2023-02-13T04:08:21;100243.00;;;3.17;100.00
18858;BME280;9558;50.178;8.370;2023-02-13T04:10:51;100250.63;;;3.19;100.00
18858;BME280;9558;50.178;8.370;2023-02-13T04:13:25;100253.25;;;3.17;100.00
18858;BME280;9558;50.178;8.370;2023-02-13T04:15:58;100239.72;;;3.15;100.00
18858;BME280;9558;50.178;8.370;2023-02-13T04:18:29;100247.53;;;3.12;100.00
18858;BME280;9558;50.178;8.370;2023-02-13T04:21:00;100240.84;;;3.09;100.00
18858;BME280;9558;50.178;8.370;2023-02-13T04:23:29;100240.03;;;3.09;100.00
18858;BME280;9558;50.178;8.370;2023-02-13T04:25:55;100241.09;;;3.05;100.00
18858;BME280;9558;50.178;8.370;2023-02-13T04:28:22;100238.53;;;3.05;100.00
18858;BME280;9558;50.178;8.370;2023-02-13T04:30:49;100231.75;;;3.04;100.00
18858;BME280;9558;50.178;8.370;2023-02-13T04:33:15;100233.72;;;2.99;100.00
18858;BME280;9558;50.178;8.370;2023-02-13T04:35:42;100231.28;;;2.96;100.00
18858;BME280;9558;50.178;8.370;2023-02-13T04:38:08;100235.34;;;3.00;100.00
18858;BME280;9558;50.178;8.370;2023-02-13T04:40:36;100240.63;;;2.97;100.00
18858;BME280;9558;50.178;8.370;2023-02-13T04:43:02;100229.56;;;2.96;100.00
18858;BME280;9558;50.178;8.370;2023-02-13T04:45:29;100233.84;;;2.96;100.00
18858;BME280;9558;50.178;8.370;2023-02-13T04:47:57;100226.31;;;2.92;100.00
18858;BME280;9558;50.178;8.370;2023-02-13T04:50:24;100234.88;;;2.91;100.00
18858;BME280;9558;50.178;8.370;2023-02-13T04:52:52;100234.97;;;2.90;100.00
18858;BME280;9558;50.178;8.370;2023-02-13T04:55:20;100228.16;;;2.90;100.00
18858;BME280;9558;50.178;8.370;2023-02-13T04:57:49;100223.38;;;2.83;100.00
18858;BME280;9558;50.178;8.370;2023-02-13T05:00:17;100230.25;;;2.82;100.00
18858;BME280;9558;50.178;8.370;2023-02-13T05:02:44;100228.81;;;2.76;100.00
18858;BME280;9558;50.178;8.370;2023-02-13T05:05:10;100230.63;;;2.74;100.00
18858;BME280;9558;50.178;8.370;2023-02-13T05:07:37;100233.22;;;2.73;100.00
18858;BME280;9558;50.178;8.370;2023-02-13T05:10:04;100229.94;;;2.71;100.00
18858;BME280;9558;50.178;8.370;2023-02-13T05:12:31;100234.41;;;2.66;100.00
18858;BME280;9558;50.178;8.370;2023-02-13T05:14:58;100243.91;;;2.64;100.00
18858;BME280;9558;50.178;8.370;2023-02-13T05:17:25;100239.09;;;2.57;100.00
18858;BME280;9558;50.178;8.370;2023-02-13T05:19:52;100236.63;;;2.56;100.00
18858;BME280;9558;50.178;8.370;2023-02-13T05:22:18;100234.25;;;2.51;100.00
18858;BME280;9558;50.178;8.370;2023-02-13T05:25:02;100236.28;;;2.45;100.00
18858;BME280;9558;50.178;8.370;2023-02-13T05:27:29;100235.75;;;2.38;100.00
18858;BME280;9558;50.178;8.370;2023-02-13T05:29:55;100228.22;;;2.35;100.00
18858;BME280;9558;50.178;8.370;2023-02-13T05:32:23;100235.97;;;2.33;100.00
18858;BME280;9558;50.178;8.370;2023-02-13T05:34:49;100229.41;;;2.28;100.00
18858;BME280;9558;50.178;8.370;2023-02-13T05:37:16;100240.59;;;2.25;100.00
18858;BME280;9558;50.178;8.370;2023-02-13T05:39:42;100236.66;;;2.18;100.00
18858;BME280;9558;50.178;8.370;2023-02-13T05:42:09;100239.44;;;2.13;100.00
18858;BME280;9558;50.178;8.370;2023-02-13T05:44:35;100231.91;;;2.10;100.00
18858;BME280;9558;50.178;8.370;2023-02-13T05:47:02;100236.38;;;2.05;100.00
18858;BME280;9558;50.178;8.370;2023-02-13T05:49:29;100235.63;;;2.03;100.00
18858;BME280;9558;50.178;8.370;2023-02-13T05:51:56;100235.91;;;1.97;100.00
18858;BME280;9558;50.178;8.370;2023-02-13T05:54:22;100242.03;;;1.93;100.00
18858;BME280;9558;50.178;8.370;2023-02-13T05:56:49;100243.84;;;1.90;100.00
18858;BME280;9558;50.178;8.370;2023-02-13T05:59:15;100240.25;;;1.95;100.00
18858;BME280;9558;50.178;8.370;2023-02-13T06:01:42;100239.84;;;1.85;100.00
18858;BME280;9558;50.178;8.370;2023-02-13T06:04:08;100239.91;;;1.83;100.00
18858;BME280;9558;50.178;8.370;2023-02-13T06:06:36;100237.50;;;1.80;100.00
18858;BME280;9558;50.178;8.370;2023-02-13T06:09:03;100232.38;;;1.80;100.00
18858;BME280;9558;50.178;8.370;2023-02-13T06:11:29;100232.63;;;1.74;100.00
18858;BME280;9558;50.178;8.370;2023-02-13T06:13:56;100234.44;;;1.72;100.00
18858;BME280;9558;50.178;8.370;2023-02-13T06:16:22;100234.56;;;1.69;100.00
18858;BME280;9558;50.178;8.370;2023-02-13T06:18:49;100231.09;;;1.70;100.00
18858;BME280;9558;50.178;8.370;2023-02-13T06:21:15;100235.47;;;1.68;100.00
18858;BME280;9558;50.178;8.370;2023-02-13T06:23:43;100229.63;;;1.66;100.00
18858;BME280;9558;50.178;8.370;2023-02-13T06:26:09;100232.34;;;1.61;100.00
18858;BME280;9558;50.178;8.370;2023-02-13T06:28:36;100238.41;;;1.59;100.00
18858;BME280;9558;50.178;8.370;2023-02-13T06:31:02;100230.06;;;1.55;100.00
18858;BME280;9558;50.178;8.370;2023-02-13T06:33:29;100228.47;;;1.52;100.00
18858;BME280;9558;50.178;8.370;2023-02-13T06:35:55;100235.38;;;1.50;100.00
18858;BME280;9558;50.178;8.370;2023-02-13T06:38:22;100238.81;;;1.49;100.00
18858;BME280;9558;50.178;8.370;2023-02-13T06:40:50;100234.66;;;1.47;100.00
18858;BME280;9558;50.178;8.370;2023-02-13T06:43:16;100237.28;;;1.45;100.00
18858;BME280;9558;50.178;8.370;2023-02-13T06:45:43;100237.34;;;1.44;100.00
18858;BME280;9558;50.178;8.370;2023-02-13T06:48:11;100241.72;;;1.42;100.00
18858;BME280;9558;50.178;8.370;2023-02-13T06:50:37;100242.53;;;1.42;100.00
18858;BME280;9558;50.178;8.370;2023-02-13T06:53:04;100244.31;;;1.40;100.00
18858;BME280;9558;50.178;8.370;2023-02-13T06:55:30;100251.06;;;1.41;100.00
18858;BME280;9558;50.178;8.370;2023-02-13T06:57:58;100243.47;;;1.40;100.00
18858;BME280;9558;50.178;8.370;2023-02-13T07:00:25;100242.78;;;1.36;100.00
18858;BME280;9558;50.178;8.370;2023-02-13T07:02:51;100246.22;;;1.35;100.00
18858;BME280;9558;50.178;8.370;2023-02-13T07:05:18;100253.00;;;1.36;100.00
18858;BME280;9558;50.178;8.370;2023-02-13T07:07:44;100249.47;;;1.38;100.00
18858;BME280;9558;50.178;8.370;2023-02-13T07:10:12;100248.66;;;1.38;100.00
18858;BME280;9558;50.178;8.370;2023-02-13T07:12:39;100246.91;;;1.38;100.00
18858;BME280;9558;50.178;8.370;2023-02-13T07:15:07;100243.53;;;1.38;100.00
18858;BME280;9558;50.178;8.370;2023-02-13T07:17:34;100246.03;;;1.40;100.00
18858;BME280;9558;50.178;8.370;2023-02-13T07:20:00;100245.97;;;1.41;100.00
18858;BME280;9558;50.178;8.370;2023-02-13T07:22:29;100251.06;;;1.41;100.00
18858;BME280;9558;50.178;8.370;2023-02-13T07:24:56;100249.28;;;1.43;100.00
18858;BME280;9558;50.178;8.370;2023-02-13T07:27:23;100248.31;;;1.46;100.00
18858;BME280;9558;50.178;8.370;2023-02-13T07:29:49;100254.25;;;1.46;100.00
18858;BME280;9558;50.178;8.370;2023-02-13T07:32:17;100258.47;;;1.47;100.00
18858;BME280;9558;50.178;8.370;2023-02-13T07:34:44;100248.88;;;1.52;100.00
18858;BME280;9558;50.178;8.370;2023-02-13T07:37:10;100241.31;;;1.51;100.00
18858;BME280;9558;50.178;8.370;2023-02-13T07:39:36;100251.38;;;1.54;100.00
18858;BME280;9558;50.178;8.370;2023-02-13T07:42:03;100249.59;;;1.56;100.00
18858;BME280;9558;50.178;8.370;2023-02-13T07:44:30;100248.63;;;1.59;100.00
18858;BME280;9558;50.178;8.370;2023-02-13T07:46:57;100251.66;;;1.67;100.00
18858;BME280;9558;50.178;8.370;2023-02-13T07:49:26;100254.28;;;1.65;100.00
18858;BME280;9558;50.178;8.370;2023-02-13T07:51:55;100253.34;;;1.68;100.00
18858;BME280;9558;50.178;8.370;2023-02-13T07:54:21;100257.28;;;1.75;100.00
18858;BME280;9558;50.178;8.370;2023-02-13T07:56:48;100256.13;;;1.82;100.00
18858;BME280;9558;50.178;8.370;2023-02-13T07:59:14;100259.44;;;1.84;100.00
18858;BME280;9558;50.178;8.370;2023-02-13T08:01:41;100256.59;;;1.90;100.00
18858;BME280;9558;50.178;8.370;2023-02-13T08:04:07;100255.56;;;1.95;100.00
18858;BME280;9558;50.178;8.370;2023-02-13T08:06:37;100255.16;;;2.04;100.00
18858;BME280;9558;50.178;8.370;2023-02-13T08:09:04;100251.56;;;2.08;100.00
18858;BME280;9558;50.178;8.370;2023-02-13T08:11:48;100257.78;;;2.21;100.00
18858;BME280;9558;50.178;8.370;2023-02-13T08:14:21;100257.66;;;2.24;100.00
18858;BME280;9558;50.178;8.370;2023-02-13T08:16:48;100255.88;;;2.44;100.00
18858;BME280;9558;50.178;8.370;2023-02-13T08:19:14;100251.38;;;3.21;100.00
18858;BME280;9558;50.178;8.370;2023-02-13T08:21:42;100246.03;;;4.08;100.00
18858;BME280;9558;50.178;8.370;2023-02-13T08:24:09;100260.84;;;4.97;100.00
18858;BME280;9558;50.178;8.370;2023-02-13T08:26:36;100251.91;;;5.91;100.00
18858;BME280;9558;50.178;8.370;2023-02-13T08:29:03;100270.03;;;6.86;100.00
18858;BME280;9558;50.178;8.370;2023-02-13T08:31:29;100269.81;;;7.81;100.00
18858;BME280;9558;50.178;8.370;2023-02-13T08:33:56;100269.44;;;8.72;100.00
18858;BME280;9558;50.178;8.370;2023-02-13T08:36:23;100267.19;;;9.61;100.00
18858;BME280;9558;50.178;8.370;2023-02-13T08:38:51;100267.56;;;10.46;97.96
18858;BME280;9558;50.178;8.370;2023-02-13T08:41:18;100261.72;;;11.18;91.28
18858;BME280;9558;50.178;8.370;2023-02-13T08:43:46;100263.69;;;11.88;88.94
18858;BME280;9558;50.178;8.370;2023-02-13T08:46:13;100268.91;;;12.48;87.67
18858;BME280;9558;50.178;8.370;2023-02-13T08:48:39;100268.59;;;13.00;84.59
18858;BME280;9558;50.178;8.370;2023-02-13T08:51:06;100274.69;;;13.48;82.31
18858;BME280;9558;50.178;8.370;2023-02-13T08:53:33;100268.09;;;13.91;80.82
18858;BME280;9558;50.178;8.370;2023-02-13T08:56:01;100274.25;;;14.18;76.38
18858;BME280;9558;50.178;8.370;2023-02-13T08:58:27;100277.25;;;14.23;77.35
18858;BME280;9558;50.178;8.370;2023-02-13T09:00:54;100269.63;;;14.12;76.06
18858;BME280;9558;50.178;8.370;2023-02-13T09:03:21;100274.28;;;14.08;77.20
18858;BME280;9558;50.178;8.370;2023-02-13T09:05:47;100278.88;;;13.96;75.25
18858;BME280;9558;50.178;8.370;2023-02-13T09:08:14;100269.69;;;13.64;75.10
18858;BME280;9558;50.178;8.370;2023-02-13T09:10:41;100276.88;;;13.33;76.19
18858;BME280;9558;50.178;8.370;2023-02-13T09:13:10;100285.03;;;13.01;77.12
18858;BME280;9558;50.178;8.370;2023-02-13T09:15:37;100274.53;;;12.53;76.09
18858;BME280;9558;50.178;8.370;2023-02-13T09:18:04;100267.50;;;12.15;77.30
18858;BME280;9558;50.178;8.370;2023-02-13T09:20:31;100274.03;;;11.78;77.18
18858;BME280;9558;50.178;8.370;2023-02-13T09:22:57;100276.59;;;11.37;76.24
18858;BME280;9558;50.178;8.370;2023-02-13T09:25:24;100273.47;;;11.01;78.80
18858;BME280;9558;50.178;8.370;2023-02-13T09:27:50;100270.34;;;10.65;79.54
18858;BME280;9558;50.178;8.370;2023-02-13T09:30:18;100278.78;;;10.24;80.75
18858;BME280;9558;50.178;8.370;2023-02-13T09:32:48;100273.16;;;9.96;82.24
18858;BME280;9558;50.178;8.370;2023-02-13T09:35:15;100276.72;;;9.72;83.23
18858;BME280;9558;50.178;8.370;2023-02-13T09:37:42;100280.22;;;9.60;84.77
18858;BME280;9558;50.178;8.370;2023-02-13T09:40:16;100279.53;;;9.46;85.59
18858;BME280;9558;50.178;8.370;2023-02-13T09:42:43;100273.53;;;9.34;85.81
18858;BME280;9558;50.178;8.370;2023-02-13T09:45:12;100271.47;;;9.15;85.01
18858;BME280;9558;50.178;8.370;2023-02-13T09:47:42;100283.88;;;8.99;86.30
18858;BME280;9558;50.178;8.370;2023-02-13T09:50:12;100278.78;;;8.86;87.46
18858;BME280;9558;50.178;8.370;2023-02-13T09:52:43;100281.44;;;8.73;88.95
18858;BME280;9558;50.178;8.370;2023-02-13T09:55:14;100286.09;;;8.68;89.07
18858;BME280;9558;50.178;8.370;2023-02-13T09:57:45;100279.94;;;8.58;89.80
18858;BME280;9558;50.178;8.370;2023-02-13T10:00:16;100280.88;;;8.57;90.40
18858;BME280;9558;50.178;8.370;2023-02-13T10:02:53;100282.88;;;8.53;90.08
18858;BME280;9558;50.178;8.370;2023-02-13T10:05:39;100274.06;;;8.56;91.08
18858;BME280;9558;50.178;8.370;2023-02-13T10:08:17;100281.59;;;8.59;91.62
18858;BME280;9558;50.178;8.370;2023-02-13T10:10:50;100285.94;;;8.58;91.92
18858;BME280;9558;50.178;8.370;2023-02-13T10:13:34;100285.41;;;8.66;92.15
18858;BME280;9558;50.178;8.370;2023-02-13T10:16:09;100285.59;;;8.63;92.04
18858;BME280;9558;50.178;8.370;2023-02-13T10:18:45;100281.56;;;8.72;92.06
18858;BME280;9558;50.178;8.370;2023-02-13T10:21:18;100280.00;;;8.69;91.38
18858;BME280;9558;50.178;8.370;2023-02-13T10:23:49;100280.59;;;8.73;91.32
18858;BME280;9558;50.178;8.370;2023-02-13T10:26:19;100282.03;;;8.77;91.13
18858;BME280;9558;50.178;8.370;2023-02-13T10:28:52;100280.88;;;8.81;90.83
18858;BME280;9558;50.178;8.370;2023-02-13T10:31:38;100272.09;;;8.84;91.05
18858;BME280;9558;50.178;8.370;2023-02-13T10:34:11;100278.44;;;8.91;91.98
18858;BME280;9558;50.178;8.370;2023-02-13T10:36:43;100273.88;;;8.94;91.05
18858;BME280;9558;50.178;8.370;2023-02-13T10:39:21;100282.09;;;8.99;90.60
18858;BME280;9558;50.178;8.370;2023-02-13T10:41:51;100278.94;;;9.07;91.32
18858;BME280;9558;50.178;8.370;2023-02-13T10:44:28;100271.94;;;9.09;90.38
18858;BME280;9558;50.178;8.370;2023-02-13T10:47:07;100269.38;;;9.21;90.18
18858;BME280;9558;50.178;8.370;2023-02-13T10:49:54;100269.13;;;9.24;87.18
18858;BME280;9558;50.178;8.370;2023-02-13T10:52:35;100267.03;;;9.29;88.20
18858;BME280;9558;50.178;8.370;2023-02-13T10:55:14;100264.13;;;9.33;85.98
18858;BME280;9558;50.178;8.370;2023-02-13T10:58:03;100257.41;;;9.42;86.73
18858;BME280;9558;50.178;8.370;2023-02-13T11:00:37;100264.25;;;9.43;86.25
18858;BME280;9558;50.178;8.370;2023-02-13T11:03:14;100263.53;;;9.52;85.67
18858;BME280;9558;50.178;8.370;2023-02-13T11:05:44;100256.50;;;9.55;82.49
18858;BME280;9558;50.178;8.370;2023-02-13T11:08:16;100252.16;;;9.55;83.79
18858;BME280;9558;50.178;8.370;2023-02-13T11:10:43;100253.31;;;9.62;84.81
18858;BME280;9558;50.178;8.370;2023-02-13T11:13:18;100244.50;;;9.65;81.39
18858;BME280;9558;50.178;8.370;2023-02-13T11:16:01;100242.50;;;9.68;82.76
18858;BME280;9558;50.178;8.370;2023-02-13T11:18:29;100252.97;;;9.78;83.31
18858;BME280;9558;50.178;8.370;2023-02-13T11:21:04;100244.38;;;9.78;80.16
18858;BME280;9558;50.178;8.370;2023-02-13T11:23:36;100242.38;;;9.81;80.49
18858;BME280;9558;50.178;8.370;2023-02-13T11:26:05;100238.38;;;9.89;78.56
18858;BME280;9558;50.178;8.370;2023-02-13T11:28:36;100236.50;;;9.91;76.45
18858;BME280;9558;50.178;8.370;2023-02-13T11:31:12;100231.44;;;10.00;81.47
18858;BME280;9558;50.178;8.370;2023-02-13T11:33:40;100232.72;;;10.06;77.47
18858;BME280;9558;50.178;8.370;2023-02-13T11:36:08;100231.53;;;10.10;77.58
18858;BME280;9558;50.178;8.370;2023-02-13T11:38:36;100229.41;;;10.15;73.90
18858;BME280;9558;50.178;8.370;2023-02-13T11:41:06;100226.44;;;10.20;76.85
18858;BME280;9558;50.178;8.370;2023-02-13T11:43:35;100233.63;;;10.28;77.84
18858;BME280;9558;50.178;8.370;2023-02-13T11:46:04;100225.38;;;10.34;74.46
18858;BME280;9558;50.178;8.370;2023-02-13T11:48:32;100232.41;;;10.43;76.71
18858;BME280;9558;50.178;8.370;2023-02-13T11:50:59;100227.13;;;10.45;74.18
18858;BME280;9558;50.178;8.370;2023-02-13T11:53:29;100227.63;;;10.60;76.90
18858;BME280;9558;50.178;8.370;2023-02-13T11:56:03;100231.16;;;10.59;73.70
18858;BME280;9558;50.178;8.370;2023-02-13T11:58:30;100225.50;;;10.65;76.53
18858;BME280;9558;50.178;8.370;2023-02-13T12:01:24;100213.97;;;10.69;75.46
18858;BME280;9558;50.178;8.370;2023-02-13T12:04:02;100219.31;;;10.77;76.77
18858;BME280;9558;50.178;8.370;2023-02-13T12:06:30;100224.25;;;10.80;75.13
18858;BME280;9558;50.178;8.370;2023-02-13T12:09:10;100223.28;;;10.81;73.81
18858;BME280;9558;50.178;8.370;2023-02-13T12:11:45;100218.56;;;10.86;73.21
18858;BME280;9558;50.178;8.370;2023-02-13T12:14:18;100219.38;;;10.87;73.76
18858;BME280;9558;50.178;8.370;2023-02-13T12:16:47;100220.22;;;10.87;70.44
18858;BME280;9558;50.178;8.370;2023-02-13T12:19:19;100215.47;;;10.93;73.60
18858;BME280;9558;50.178;8.370;2023-02-13T12:22:05;100208.81;;;11.00;73.33
18858;BME280;9558;50.178;8.370;2023-02-13T12:24:52;100207.88;;;11.01;67.07
18858;BME280;9558;50.178;8.370;2023-02-13T12:27:28;100205.03;;;11.04;70.33
18858;BME280;9558;50.178;8.370;2023-02-13T12:30:10;100202.44;;;11.04;70.18
18858;BME280;9558;50.178;8.370;2023-02-13T12:32:47;100204.78;;;11.07;69.62
18858;BME280;9558;50.178;8.370;2023-02-13T12:35:40;100200.97;;;11.11;71.15
18858;BME280;9558;50.178;8.370;2023-02-13T12:38:22;100200.97;;;11.11;71.18
18858;BME280;9558;50.178;8.370;2023-02-13T12:41:02;100193.66;;;11.16;67.77
18858;BME280;9558;50.178;8.370;2023-02-13T12:43:38;100192.81;;;11.16;67.17
18858;BME280;9558;50.178;8.370;2023-02-13T12:46:15;100188.47;;;11.16;67.96
18858;BME280;9558;50.178;8.370;2023-02-13T12:48:51;100183.97;;;11.18;67.11
18858;BME280;9558;50.178;8.370;2023-02-13T12:51:32;100188.22;;;11.19;64.59
18858;BME280;9558;50.178;8.370;2023-02-13T12:54:13;100182.09;;;11.20;66.09
18858;BME280;9558;50.178;8.370;2023-02-13T12:56:53;100183.22;;;11.28;67.10
18858;BME280;9558;50.178;8.370;2023-02-13T12:59:29;100176.81;;;11.32;65.38
18858;BME280;9558;50.178;8.370;2023-02-13T13:05:18;100172.69;;;11.29;66.21
18858;BME280;9558;50.178;8.370;2023-02-13T13:08:00;100176.28;;;11.38;66.70
18858;BME280;9558;50.178;8.370;2023-02-13T13:10:41;100182.41;;;11.37;65.82
18858;BME280;9558;50.178;8.370;2023-02-13T13:13:15;100178.16;;;11.36;66.46
18858;BME280;9558;50.178;8.370;2023-02-13T13:15:52;100183.13;;;11.39;65.95
18858;BME280;9558;50.178;8.370;2023-02-13T13:18:31;100176.97;;;11.40;66.71
18858;BME280;9558;50.178;8.370;2023-02-13T13:21:07;100176.28;;;11.38;66.60
18858;BME280;9558;50.178;8.370;2023-02-13T13:23:43;100172.88;;;11.47;65.48
18858;BME280;9558;50.178;8.370;2023-02-13T13:26:18;100179.06;;;11.46;64.27
18858;BME280;9558;50.178;8.370;2023-02-13T13:28:51;100179.47;;;11.51;64.38
18858;BME280;9558;50.178;8.370;2023-02-13T13:31:19;100175.25;;;11.50;64.12
18858;BME280;9558;50.178;8.370;2023-02-13T13:33:48;100171.94;;;11.48;63.91